sensor_id;sensor_type;location;lat;lon;timestamp;temperature;humidity
55203;DHT22;41077;52.956;6.796;2023-02-22T00:00:52;8.80;99.90
55203;DHT22;41077;52.956;6.796;2023-02-22T00:03:20;8.80;99.90
55203;DHT22;41077;52.956;6.796;2023-02-22T00:06:02;8.80;99.90
55203;DHT22;41077;52.956;6.796;2023-02-22T00:08:34;8.70;99.90
55203;DHT22;41077;52.956;6.796;2023-02-22T00:11:02;8.70;99.90
55203;DHT22;41077;52.956;6.796;2023-02-22T00:13:29;8.70;99.90
55203;DHT22;41077;52.956;6.796;2023-02-22T00:15:58;8.70;99.90
55203;DHT22;41077;52.956;6.796;2023-02-22T00:18:25;8.70;99.90
55203;DHT22;41077;52.956;6.796;2023-02-22T00:20:55;8.70;99.90
55203;DHT22;41077;52.956;6.796;2023-02-22T00:23:24;8.70;99.90
55203;DHT22;41077;52.956;6.796;2023-02-22T00:25:51;8.70;99.90
55203;DHT22;41077;52.956;6.796;2023-02-22T00:28:17;8.70;99.90
55203;DHT22;41077;52.956;6.796;2023-02-22T00:30:44;8.70;99.90
55203;DHT22;41077;52.956;6.796;2023-02-22T00:33:14;8.70;99.90
55203;DHT22;41077;52.956;6.796;2023-02-22T00:35:40;8.70;99.90
55203;DHT22;41077;52.956;6.796;2023-02-22T00:38:06;8.70;99.90
55203;DHT22;41077;52.956;6.796;2023-02-22T00:40:33;8.60;99.90
55203;DHT22;41077;52.956;6.796;2023-02-22T00:43:02;8.60;99.90
55203;DHT22;41077;52.956;6.796;2023-02-22T00:45:30;8.70;99.90
55203;DHT22;41077;52.956;6.796;2023-02-22T00:47:57;8.60;99.90
55203;DHT22;41077;52.956;6.796;2023-02-22T00:50:26;8.70;99.90
55203;DHT22;41077;52.956;6.796;2023-02-22T00:52:52;8.60;99.90
55203;DHT22;41077;52.956;6.796;2023-02-22T00:55:22;8.60;99.90
55203;DHT22;41077;52.956;6.796;2023-02-22T00:57:48;8.60;99.90
55203;DHT22;41077;52.956;6.796;2023-02-22T01:00:25;8.60;99.90
55203;DHT22;41077;52.956;6.796;2023-02-22T01:02:52;8.60;99.90
55203;DHT22;41077;52.956;6.796;2023-02-22T01:05:21;8.60;99.90
55203;DHT22;41077;52.956;6.796;2023-02-22T01:07:48;8.60;99.90
55203;DHT22;41077;52.956;6.796;2023-02-22T01:10:14;8.60;99.90
55203;DHT22;41077;52.956;6.796;2023-02-22T01:12:40;8.60;99.90
55203;DHT22;41077;52.956;6.796;2023-02-22T01:15:08;8.60;99.90
55203;DHT22;41077;52.956;6.796;2023-02-22T01:17:37;8.60;99.90
55203;DHT22;41077;52.956;6.796;2023-02-22T01:20:05;8.60;99.90
55203;DHT22;41077;52.956;6.796;2023-02-22T01:22:42;8.60;99.90
55203;DHT22;41077;52.956;6.796;2023-02-22T01:25:09;8.60;99.90
55203;DHT22;41077;52.956;6.796;2023-02-22T01:27:37;8.60;99.90
55203;DHT22;41077;52.956;6.796;2023-02-22T01:30:04;8.60;99.90
55203;DHT22;41077;52.956;6.796;2023-02-22T01:32:37;8.50;99.90
55203;DHT22;41077;52.956;6.796;2023-02-22T01:35:05;8.60;99.90
55203;DHT22;41077;52.956;6.796;2023-02-22T01:37:33;8.60;99.90
55203;DHT22;41077;52.956;6.796;2023-02-22T01:40:00;8.60;99.90
55203;DHT22;41077;52.956;6.796;2023-02-22T01:42:26;8.60;99.90
55203;DHT22;41077;52.956;6.796;2023-02-22T01:50:28;8.60;99.90
55203;DHT22;41077;52.956;6.796;2023-02-22T01:52:56;8.50;99.90
55203;DHT22;41077;52.956;6.796;2023-02-22T01:55:22;8.60;99.90
55203;DHT22;41077;52.956;6.796;2023-02-22T01:57:48;8.50;99.90
55203;DHT22;41077;52.956;6.796;2023-02-22T02:00:16;8.60;99.90
55203;DHT22;41077;52.956;6.796;2023-02-22T02:02:57;8.60;99.90
55203;DHT22;41077;52.956;6.796;2023-02-22T02:05:25;8.60;99.90
55203;DHT22;41077;52.956;6.796;2023-02-22T02:07:52;8.60;99.90
55203;DHT22;41077;52.956;6.796;2023-02-22T02:10:18;8.60;99.90
55203;DHT22;41077;52.956;6.796;2023-02-22T02:12:46;8.50;99.90
55203;DHT22;41077;52.956;6.796;2023-02-22T02:17:49;8.50;99.90
55203;DHT22;41077;52.956;6.796;2023-02-22T02:20:23;8.50;99.90
55203;DHT22;41077;52.956;6.796;2023-02-22T02:32:13;8.50;99.90
55203;DHT22;41077;52.956;6.796;2023-02-22T02:42:42;8.50;99.90
55203;DHT22;41077;52.956;6.796;2023-02-22T02:45:17;8.50;99.90
55203;DHT22;41077;52.956;6.796;2023-02-22T02:47:49;8.50;99.90
55203;DHT22;41077;52.956;6.796;2023-02-22T02:50:17;8.50;99.90
55203;DHT22;41077;52.956;6.796;2023-02-22T02:52:45;8.50;99.90
55203;DHT22;41077;52.956;6.796;2023-02-22T02:55:12;8.50;99.90
55203;DHT22;41077;52.956;6.796;2023-02-22T02:57:38;8.50;99.90
55203;DHT22;41077;52.956;6.796;2023-02-22T03:00:05;8.50;99.90
55203;DHT22;41077;52.956;6.796;2023-02-22T03:05:57;8.50;99.90
55203;DHT22;41077;52.956;6.796;2023-02-22T03:11:10;8.50;99.90
55203;DHT22;41077;52.956;6.796;2023-02-22T03:13:54;8.50;99.90
55203;DHT22;41077;52.956;6.796;2023-02-22T03:17:00;8.50;99.90
55203;DHT22;41077;52.956;6.796;2023-02-22T03:19:39;8.40;99.90
55203;DHT22;41077;52.956;6.796;2023-02-22T03:22:24;8.40;99.90
55203;DHT22;41077;52.956;6.796;2023-02-22T03:25:07;8.50;99.90
55203;DHT22;41077;52.956;6.796;2023-02-22T03:27:44;8.50;99.90
55203;DHT22;41077;52.956;6.796;2023-02-22T03:33:03;8.40;99.90
55203;DHT22;41077;52.956;6.796;2023-02-22T03:35:38;8.40;99.90
55203;DHT22;41077;52.956;6.796;2023-02-22T03:38:08;8.40;99.90
55203;DHT22;41077;52.956;6.796;2023-02-22T03:40:38;8.40;99.90
55203;DHT22;41077;52.956;6.796;2023-02-22T03:43:12;8.40;99.90
55203;DHT22;41077;52.956;6.796;2023-02-22T03:45:42;8.40;99.90
55203;DHT22;41077;52.956;6.796;2023-02-22T03:50:56;8.40;99.90
55203;DHT22;41077;52.956;6.796;2023-02-22T03:53:23;8.40;99.90
55203;DHT22;41077;52.956;6.796;2023-02-22T03:55:50;8.40;99.90
55203;DHT22;41077;52.956;6.796;2023-02-22T03:58:21;8.40;99.90
55203;DHT22;41077;52.956;6.796;2023-02-22T04:00:47;8.40;99.90
55203;DHT22;41077;52.956;6.796;2023-02-22T04:03:18;8.40;99.90
55203;DHT22;41077;52.956;6.796;2023-02-22T04:05:44;8.40;99.90
55203;DHT22;41077;52.956;6.796;2023-02-22T04:08:10;8.40;99.90
55203;DHT22;41077;52.956;6.796;2023-02-22T04:10:36;8.40;99.90
55203;DHT22;41077;52.956;6.796;2023-02-22T04:13:03;8.30;99.90
55203;DHT22;41077;52.956;6.796;2023-02-22T04:15:31;8.30;99.90
55203;DHT22;41077;52.956;6.796;2023-02-22T04:17:57;8.30;99.90
55203;DHT22;41077;52.956;6.796;2023-02-22T04:20:23;8.30;99.90
55203;DHT22;41077;52.956;6.796;2023-02-22T04:22:54;8.30;99.90
55203;DHT22;41077;52.956;6.796;2023-02-22T04:25:21;8.30;99.90
55203;DHT22;41077;52.956;6.796;2023-02-22T04:27:47;8.30;99.90
55203;DHT22;41077;52.956;6.796;2023-02-22T04:30:16;8.30;99.90
55203;DHT22;41077;52.956;6.796;2023-02-22T04:32:42;8.30;99.90
55203;DHT22;41077;52.956;6.796;2023-02-22T04:35:08;8.30;99.90
55203;DHT22;41077;52.956;6.796;2023-02-22T04:37:34;8.30;99.90
55203;DHT22;41077;52.956;6.796;2023-02-22T04:40:00;8.30;99.90
55203;DHT22;41077;52.956;6.796;2023-02-22T04:42:27;8.30;99.90
55203;DHT22;41077;52.956;6.796;2023-02-22T04:44:53;8.20;99.90
55203;DHT22;41077;52.956;6.796;2023-02-22T04:47:18;8.20;99.90
55203;DHT22;41077;52.956;6.796;2023-02-22T04:49:44;8.20;99.90
55203;DHT22;41077;52.956;6.796;2023-02-22T04:52:10;8.20;99.90
55203;DHT22;41077;52.956;6.796;2023-02-22T04:54:36;8.20;99.90
55203;DHT22;41077;52.956;6.796;2023-02-22T04:57:02;8.20;99.90
55203;DHT22;41077;52.956;6.796;2023-02-22T04:59:28;8.20;99.90
55203;DHT22;41077;52.956;6.796;2023-02-22T05:01:54;8.20;99.90
55203;DHT22;41077;52.956;6.796;2023-02-22T05:04:19;8.20;99.90
55203;DHT22;41077;52.956;6.796;2023-02-22T05:06:46;8.20;99.90
55203;DHT22;41077;52.956;6.796;2023-02-22T05:09:12;8.10;99.90
55203;DHT22;41077;52.956;6.796;2023-02-22T05:11:38;8.10;99.90
55203;DHT22;41077;52.956;6.796;2023-02-22T05:14:04;8.10;99.90
55203;DHT22;41077;52.956;6.796;2023-02-22T05:16:30;8.10;99.90
55203;DHT22;41077;52.956;6.796;2023-02-22T05:18:55;8.10;99.90
55203;DHT22;41077;52.956;6.796;2023-02-22T05:21:21;8.10;99.90
55203;DHT22;41077;52.956;6.796;2023-02-22T05:23:46;8.10;99.90
55203;DHT22;41077;52.956;6.796;2023-02-22T05:26:12;8.10;99.90
55203;DHT22;41077;52.956;6.796;2023-02-22T05:28:38;8.10;99.90
55203;DHT22;41077;52.956;6.796;2023-02-22T05:31:04;8.10;99.90
55203;DHT22;41077;52.956;6.796;2023-02-22T05:33:31;8.10;99.90
55203;DHT22;41077;52.956;6.796;2023-02-22T05:35:57;8.00;99.90
55203;DHT22;41077;52.956;6.796;2023-02-22T05:38:23;8.00;99.90
55203;DHT22;41077;52.956;6.796;2023-02-22T05:40:49;8.00;99.90
55203;DHT22;41077;52.956;6.796;2023-02-22T05:43:15;8.00;99.90
55203;DHT22;41077;52.956;6.796;2023-02-22T05:45:41;8.00;99.90
55203;DHT22;41077;52.956;6.796;2023-02-22T05:48:07;8.00;99.90
55203;DHT22;41077;52.956;6.796;2023-02-22T05:50:33;8.00;99.90
55203;DHT22;41077;52.956;6.796;2023-02-22T05:52:59;8.00;99.90
55203;DHT22;41077;52.956;6.796;2023-02-22T05:55:25;8.00;99.90
55203;DHT22;41077;52.956;6.796;2023-02-22T05:57:52;8.00;99.90
55203;DHT22;41077;52.956;6.796;2023-02-22T06:00:21;8.00;99.90
55203;DHT22;41077;52.956;6.796;2023-02-22T06:02:58;8.00;99.90
55203;DHT22;41077;52.956;6.796;2023-02-22T06:05:24;7.90;99.90
55203;DHT22;41077;52.956;6.796;2023-02-22T06:07:50;7.90;99.90
55203;DHT22;41077;52.956;6.796;2023-02-22T06:10:16;7.90;99.90
55203;DHT22;41077;52.956;6.796;2023-02-22T06:12:42;7.90;99.90
55203;DHT22;41077;52.956;6.796;2023-02-22T06:15:09;7.90;99.90
55203;DHT22;41077;52.956;6.796;2023-02-22T06:17:35;7.90;99.90
55203;DHT22;41077;52.956;6.796;2023-02-22T06:20:01;7.90;99.90
55203;DHT22;41077;52.956;6.796;2023-02-22T06:22:27;7.80;99.90
55203;DHT22;41077;52.956;6.796;2023-02-22T06:24:52;7.80;99.90
55203;DHT22;41077;52.956;6.796;2023-02-22T06:27:18;7.90;99.90
55203;DHT22;41077;52.956;6.796;2023-02-22T06:29:45;7.80;99.90
55203;DHT22;41077;52.956;6.796;2023-02-22T06:32:13;7.80;99.90
55203;DHT22;41077;52.956;6.796;2023-02-22T06:34:39;7.80;99.90
55203;DHT22;41077;52.956;6.796;2023-02-22T06:37:06;7.80;99.90
55203;DHT22;41077;52.956;6.796;2023-02-22T06:39:32;7.80;99.90
55203;DHT22;41077;52.956;6.796;2023-02-22T06:41:58;7.80;99.90
55203;DHT22;41077;52.956;6.796;2023-02-22T06:44:24;7.80;99.90
55203;DHT22;41077;52.956;6.796;2023-02-22T06:46:50;7.80;99.90
55203;DHT22;41077;52.956;6.796;2023-02-22T06:49:18;7.80;99.90
55203;DHT22;41077;52.956;6.796;2023-02-22T06:51:43;7.80;99.90
55203;DHT22;41077;52.956;6.796;2023-02-22T06:54:09;7.70;99.90
55203;DHT22;41077;52.956;6.796;2023-02-22T06:56:35;7.80;99.90
55203;DHT22;41077;52.956;6.796;2023-02-22T06:59:01;7.80;99.90
55203;DHT22;41077;52.956;6.796;2023-02-22T07:01:27;7.70;99.90
55203;DHT22;41077;52.956;6.796;2023-02-22T07:03:53;7.70;99.90
55203;DHT22;41077;52.956;6.796;2023-02-22T07:06:19;7.70;99.90
55203;DHT22;41077;52.956;6.796;2023-02-22T07:08:44;7.70;99.90
55203;DHT22;41077;52.956;6.796;2023-02-22T07:11:10;7.80;99.90
55203;DHT22;41077;52.956;6.796;2023-02-22T07:13:36;7.80;99.90
55203;DHT22;41077;52.956;6.796;2023-02-22T07:16:01;7.80;99.90
55203;DHT22;41077;52.956;6.796;2023-02-22T07:18:28;7.80;99.90
55203;DHT22;41077;52.956;6.796;2023-02-22T07:20:54;7.80;99.90
55203;DHT22;41077;52.956;6.796;2023-02-22T07:23:19;7.80;99.90
55203;DHT22;41077;52.956;6.796;2023-02-22T07:25:45;7.80;99.90
55203;DHT22;41077;52.956;6.796;2023-02-22T07:28:11;7.80;99.90
55203;DHT22;41077;52.956;6.796;2023-02-22T07:30:37;7.80;99.90
55203;DHT22;41077;52.956;6.796;2023-02-22T07:33:05;7.80;99.90
55203;DHT22;41077;52.956;6.796;2023-02-22T07:35:34;7.80;99.90
55203;DHT22;41077;52.956;6.796;2023-02-22T07:38:04;7.90;99.90
55203;DHT22;41077;52.956;6.796;2023-02-22T07:40:30;7.90;99.90
55203;DHT22;41077;52.956;6.796;2023-02-22T07:45:42;7.90;99.90
55203;DHT22;41077;52.956;6.796;2023-02-22T07:48:08;7.90;99.90
55203;DHT22;41077;52.956;6.796;2023-02-22T07:50:34;7.90;99.90
55203;DHT22;41077;52.956;6.796;2023-02-22T07:53:06;8.00;99.90
55203;DHT22;41077;52.956;6.796;2023-02-22T07:55:33;8.00;99.90
55203;DHT22;41077;52.956;6.796;2023-02-22T07:58:02;8.00;99.90
55203;DHT22;41077;52.956;6.796;2023-02-22T08:00:33;8.10;99.90
55203;DHT22;41077;52.956;6.796;2023-02-22T08:03:03;8.10;99.90
55203;DHT22;41077;52.956;6.796;2023-02-22T08:05:31;8.10;99.90
55203;DHT22;41077;52.956;6.796;2023-02-22T08:07:57;8.10;99.90
55203;DHT22;41077;52.956;6.796;2023-02-22T08:10:25;8.10;99.90
55203;DHT22;41077;52.956;6.796;2023-02-22T08:12:51;8.10;99.90
55203;DHT22;41077;52.956;6.796;2023-02-22T08:15:22;8.20;99.90
55203;DHT22;41077;52.956;6.796;2023-02-22T08:17:49;8.20;99.90
55203;DHT22;41077;52.956;6.796;2023-02-22T08:20:15;8.30;99.90
55203;DHT22;41077;52.956;6.796;2023-02-22T08:22:44;8.30;99.90
55203;DHT22;41077;52.956;6.796;2023-02-22T08:25:11;8.30;99.90
55203;DHT22;41077;52.956;6.796;2023-02-22T08:27:37;8.20;99.90
55203;DHT22;41077;52.956;6.796;2023-02-22T08:30:04;8.30;99.90
55203;DHT22;41077;52.956;6.796;2023-02-22T08:32:29;8.30;99.90
55203;DHT22;41077;52.956;6.796;2023-02-22T08:34:55;8.30;99.90
55203;DHT22;41077;52.956;6.796;2023-02-22T08:37:21;8.30;99.90
55203;DHT22;41077;52.956;6.796;2023-02-22T08:39:47;8.30;99.90
55203;DHT22;41077;52.956;6.796;2023-02-22T08:42:12;8.40;99.90
55203;DHT22;41077;52.956;6.796;2023-02-22T08:44:39;8.40;99.90
55203;DHT22;41077;52.956;6.796;2023-02-22T08:47:06;8.30;99.90
55203;DHT22;41077;52.956;6.796;2023-02-22T08:49:32;8.40;99.90
55203;DHT22;41077;52.956;6.796;2023-02-22T08:51:57;8.40;99.90
55203;DHT22;41077;52.956;6.796;2023-02-22T08:54:23;8.40;99.90
55203;DHT22;41077;52.956;6.796;2023-02-22T08:56:49;8.40;99.90
55203;DHT22;41077;52.956;6.796;2023-02-22T08:59:15;8.50;99.90
55203;DHT22;41077;52.956;6.796;2023-02-22T09:01:41;8.50;99.90
55203;DHT22;41077;52.956;6.796;2023-02-22T09:04:07;8.50;99.90
55203;DHT22;41077;52.956;6.796;2023-02-22T09:06:33;8.60;99.90
55203;DHT22;41077;52.956;6.796;2023-02-22T09:09:00;8.60;99.90
55203;DHT22;41077;52.956;6.796;2023-02-22T09:11:26;8.60;99.90
55203;DHT22;41077;52.956;6.796;2023-02-22T09:13:52;8.50;99.90
55203;DHT22;41077;52.956;6.796;2023-02-22T09:16:18;8.50;99.90
55203;DHT22;41077;52.956;6.796;2023-02-22T09:18:44;8.50;99.90
55203;DHT22;41077;52.956;6.796;2023-02-22T09:21:10;8.60;99.90
55203;DHT22;41077;52.956;6.796;2023-02-22T09:23:41;8.60;99.90
55203;DHT22;41077;52.956;6.796;2023-02-22T09:26:08;8.60;99.90
55203;DHT22;41077;52.956;6.796;2023-02-22T09:28:33;8.60;99.90
55203;DHT22;41077;52.956;6.796;2023-02-22T09:30:59;8.60;99.90
55203;DHT22;41077;52.956;6.796;2023-02-22T09:33:25;8.60;99.90
55203;DHT22;41077;52.956;6.796;2023-02-22T09:35:51;8.60;99.90
55203;DHT22;41077;52.956;6.796;2023-02-22T09:38:19;8.70;99.90
55203;DHT22;41077;52.956;6.796;2023-02-22T09:41:10;8.60;99.90
55203;DHT22;41077;52.956;6.796;2023-02-22T09:44:00;8.60;99.90
55203;DHT22;41077;52.956;6.796;2023-02-22T09:46:36;8.70;99.90
55203;DHT22;41077;52.956;6.796;2023-02-22T09:49:15;8.70;99.90
55203;DHT22;41077;52.956;6.796;2023-02-22T09:51:59;8.70;99.90
55203;DHT22;41077;52.956;6.796;2023-02-22T09:54:47;8.80;99.90
55203;DHT22;41077;52.956;6.796;2023-02-22T09:57:23;8.80;99.90
55203;DHT22;41077;52.956;6.796;2023-02-22T10:03:20;8.90;99.90
55203;DHT22;41077;52.956;6.796;2023-02-22T10:05:51;8.90;99.90
55203;DHT22;41077;52.956;6.796;2023-02-22T10:08:19;9.00;99.90
55203;DHT22;41077;52.956;6.796;2023-02-22T10:10:47;9.00;99.90
55203;DHT22;41077;52.956;6.796;2023-02-22T10:13:29;8.90;99.90
55203;DHT22;41077;52.956;6.796;2023-02-22T10:26:37;8.70;99.90
55203;DHT22;41077;52.956;6.796;2023-02-22T10:32:03;8.60;99.90
55203;DHT22;41077;52.956;6.796;2023-02-22T10:34:34;8.50;99.90
55203;DHT22;41077;52.956;6.796;2023-02-22T10:37:18;8.50;99.90
55203;DHT22;41077;52.956;6.796;2023-02-22T10:39:47;8.40;99.90
55203;DHT22;41077;52.956;6.796;2023-02-22T10:42:14;8.50;99.90
55203;DHT22;41077;52.956;6.796;2023-02-22T10:44:40;8.50;99.90
55203;DHT22;41077;52.956;6.796;2023-02-22T10:47:09;8.40;99.90
55203;DHT22;41077;52.956;6.796;2023-02-22T10:49:46;8.40;99.90
55203;DHT22;41077;52.956;6.796;2023-02-22T10:52:18;8.40;99.90
55203;DHT22;41077;52.956;6.796;2023-02-22T10:54:47;8.40;99.90
55203;DHT22;41077;52.956;6.796;2023-02-22T10:57:19;8.50;99.90
55203;DHT22;41077;52.956;6.796;2023-02-22T10:59:47;8.50;99.90
55203;DHT22;41077;52.956;6.796;2023-02-22T11:04:52;8.60;99.90
55203;DHT22;41077;52.956;6.796;2023-02-22T11:09:50;8.60;99.90
55203;DHT22;41077;52.956;6.796;2023-02-22T11:12:20;8.70;99.90
55203;DHT22;41077;52.956;6.796;2023-02-22T11:14:46;8.80;99.90
55203;DHT22;41077;52.956;6.796;2023-02-22T11:17:17;8.70;99.90
55203;DHT22;41077;52.956;6.796;2023-02-22T11:19:47;8.70;99.90
55203;DHT22;41077;52.956;6.796;2023-02-22T11:22:38;8.70;99.90
55203;DHT22;41077;52.956;6.796;2023-02-22T11:25:06;8.70;99.90
55203;DHT22;41077;52.956;6.796;2023-02-22T11:27:39;8.70;99.90
55203;DHT22;41077;52.956;6.796;2023-02-22T11:30:20;8.70;99.90
55203;DHT22;41077;52.956;6.796;2023-02-22T11:38:11;8.80;99.90
55203;DHT22;41077;52.956;6.796;2023-02-22T11:40:40;8.80;99.90
55203;DHT22;41077;52.956;6.796;2023-02-22T11:43:15;8.80;99.90
55203;DHT22;41077;52.956;6.796;2023-02-22T11:54:36;8.90;99.90
55203;DHT22;41077;52.956;6.796;2023-02-22T12:09:12;9.20;99.90
55203;DHT22;41077;52.956;6.796;2023-02-22T12:20:31;9.30;99.90
55203;DHT22;41077;52.956;6.796;2023-02-22T12:23:24;9.30;99.90
55203;DHT22;41077;52.956;6.796;2023-02-22T12:28:39;9.40;99.90
55203;DHT22;41077;52.956;6.796;2023-02-22T12:31:31;9.40;99.90
55203;DHT22;41077;52.956;6.796;2023-02-22T12:36:47;9.40;99.90
55203;DHT22;41077;52.956;6.796;2023-02-22T12:39:36;9.50;99.90
55203;DHT22;41077;52.956;6.796;2023-02-22T12:42:15;9.60;99.90
55203;DHT22;41077;52.956;6.796;2023-02-22T12:44:46;9.60;99.90
55203;DHT22;41077;52.956;6.796;2023-02-22T12:47:20;9.70;99.90
55203;DHT22;41077;52.956;6.796;2023-02-22T12:49:51;9.80;99.90
55203;DHT22;41077;52.956;6.796;2023-02-22T12:52:33;9.80;99.90
55203;DHT22;41077;52.956;6.796;2023-02-22T12:57:53;9.80;99.90
55203;DHT22;41077;52.956;6.796;2023-02-22T13:06:16;9.60;99.90
55203;DHT22;41077;52.956;6.796;2023-02-22T13:14:44;9.50;99.90
55203;DHT22;41077;52.956;6.796;2023-02-22T13:17:21;9.50;99.90
55203;DHT22;41077;52.956;6.796;2023-02-22T13:52:55;9.90;99.90
55203;DHT22;41077;52.956;6.796;2023-02-22T13:55:25;9.90;99.90
55203;DHT22;41077;52.956;6.796;2023-02-22T13:58:14;10.00;99.90
55203;DHT22;41077;52.956;6.796;2023-02-22T14:10:49;10.50;99.90
55203;DHT22;41077;52.956;6.796;2023-02-22T14:13:17;10.60;99.90
55203;DHT22;41077;52.956;6.796;2023-02-22T14:18:36;10.60;99.90
55203;DHT22;41077;52.956;6.796;2023-02-22T14:21:10;10.60;99.90
55203;DHT22;41077;52.956;6.796;2023-02-22T14:23:45;10.60;99.90
55203;DHT22;41077;52.956;6.796;2023-02-22T14:26:38;10.60;99.90
55203;DHT22;41077;52.956;6.796;2023-02-22T14:45:28;10.20;99.90
55203;DHT22;41077;52.956;6.796;2023-02-22T14:53:34;10.10;99.90
55203;DHT22;41077;52.956;6.796;2023-02-22T14:56:15;10.10;99.90
55203;DHT22;41077;52.956;6.796;2023-02-22T15:01:36;10.10;99.90
55203;DHT22;41077;52.956;6.796;2023-02-22T15:04:24;10.10;99.90
55203;DHT22;41077;52.956;6.796;2023-02-22T15:06:50;10.10;99.90
55203;DHT22;41077;52.956;6.796;2023-02-22T15:14:33;10.10;99.90
55203;DHT22;41077;52.956;6.796;2023-02-22T15:17:07;10.00;99.90
55203;DHT22;41077;52.956;6.796;2023-02-22T15:19:38;10.00;99.90
55203;DHT22;41077;52.956;6.796;2023-02-22T15:22:04;10.00;99.90
55203;DHT22;41077;52.956;6.796;2023-02-22T15:24:35;10.00;99.90
55203;DHT22;41077;52.956;6.796;2023-02-22T15:27:06;10.00;99.90
55203;DHT22;41077;52.956;6.796;2023-02-22T15:29:37;10.00;99.90
55203;DHT22;41077;52.956;6.796;2023-02-22T15:32:19;10.00;99.90
55203;DHT22;41077;52.956;6.796;2023-02-22T15:34:54;10.00;99.90
55203;DHT22;41077;52.956;6.796;2023-02-22T15:37:24;9.90;99.90
55203;DHT22;41077;52.956;6.796;2023-02-22T15:39:52;9.90;99.90
55203;DHT22;41077;52.956;6.796;2023-02-22T15:42:29;9.90;99.90
55203;DHT22;41077;52.956;6.796;2023-02-22T15:44:54;9.90;99.90
55203;DHT22;41077;52.956;6.796;2023-02-22T15:47:23;9.90;99.90
55203;DHT22;41077;52.956;6.796;2023-02-22T15:52:52;9.80;99.90
55203;DHT22;41077;52.956;6.796;2023-02-22T15:55:21;9.80;99.90
55203;DHT22;41077;52.956;6.796;2023-02-22T15:57:48;9.80;99.90
55203;DHT22;41077;52.956;6.796;2023-02-22T16:00:35;9.80;99.90
55203;DHT22;41077;52.956;6.796;2023-02-22T16:03:12;9.80;99.90
55203;DHT22;41077;52.956;6.796;2023-02-22T16:05:51;9.80;99.90
55203;DHT22;41077;52.956;6.796;2023-02-22T16:08:22;9.80;99.90
55203;DHT22;41077;52.956;6.796;2023-02-22T16:11:03;9.70;99.90
55203;DHT22;41077;52.956;6.796;2023-02-22T16:13:32;9.70;99.90
55203;DHT22;41077;52.956;6.796;2023-02-22T16:16:03;9.70;99.90
55203;DHT22;41077;52.956;6.796;2023-02-22T16:21:14;9.70;99.90
55203;DHT22;41077;52.956;6.796;2023-02-22T16:23:48;9.70;99.90
55203;DHT22;41077;52.956;6.796;2023-02-22T16:28:56;9.70;99.90
55203;DHT22;41077;52.956;6.796;2023-02-22T16:31:28;9.60;99.90
55203;DHT22;41077;52.956;6.796;2023-02-22T16:33:56;9.60;99.90
55203;DHT22;41077;52.956;6.796;2023-02-22T16:36:34;9.60;99.90
55203;DHT22;41077;52.956;6.796;2023-02-22T16:39:01;9.60;99.90
55203;DHT22;41077;52.956;6.796;2023-02-22T16:41:27;9.60;99.90
55203;DHT22;41077;52.956;6.796;2023-02-22T16:43:53;9.60;99.90
55203;DHT22;41077;52.956;6.796;2023-02-22T16:46:18;9.60;99.90
55203;DHT22;41077;52.956;6.796;2023-02-22T16:48:44;9.60;99.90
55203;DHT22;41077;52.956;6.796;2023-02-22T16:51:21;9.60;99.90
55203;DHT22;41077;52.956;6.796;2023-02-22T16:53:48;9.50;99.90
55203;DHT22;41077;52.956;6.796;2023-02-22T16:56:16;9.50;99.90
55203;DHT22;41077;52.956;6.796;2023-02-22T16:58:43;9.50;99.90
55203;DHT22;41077;52.956;6.796;2023-02-22T17:01:10;9.50;99.90
55203;DHT22;41077;52.956;6.796;2023-02-22T17:03:37;9.50;99.90
55203;DHT22;41077;52.956;6.796;2023-02-22T17:06:03;9.50;99.90
55203;DHT22;41077;52.956;6.796;2023-02-22T17:08:28;9.50;99.90
55203;DHT22;41077;52.956;6.796;2023-02-22T17:10:57;9.50;99.90
55203;DHT22;41077;52.956;6.796;2023-02-22T17:13:25;9.50;99.90
55203;DHT22;41077;52.956;6.796;2023-02-22T17:15:51;9.50;99.90
55203;DHT22;41077;52.956;6.796;2023-02-22T17:18:20;9.40;99.90
55203;DHT22;41077;52.956;6.796;2023-02-22T17:20:48;9.40;99.90
55203;DHT22;41077;52.956;6.796;2023-02-22T17:23:14;9.40;99.90
55203;DHT22;41077;52.956;6.796;2023-02-22T17:25:48;9.40;99.90
55203;DHT22;41077;52.956;6.796;2023-02-22T17:28:14;9.40;99.90
55203;DHT22;41077;52.956;6.796;2023-02-22T17:30:41;9.40;99.90
55203;DHT22;41077;52.956;6.796;2023-02-22T17:33:14;9.30;99.90
55203;DHT22;41077;52.956;6.796;2023-02-22T17:35:40;9.30;99.90
55203;DHT22;41077;52.956;6.796;2023-02-22T17:38:06;9.20;99.90
55203;DHT22;41077;52.956;6.796;2023-02-22T17:40:36;9.20;99.90
55203;DHT22;41077;52.956;6.796;2023-02-22T17:43:03;9.20;99.90
55203;DHT22;41077;52.956;6.796;2023-02-22T17:45:30;9.20;99.90
55203;DHT22;41077;52.956;6.796;2023-02-22T17:47:56;9.20;99.90
55203;DHT22;41077;52.956;6.796;2023-02-22T17:50:24;9.20;99.90
55203;DHT22;41077;52.956;6.796;2023-02-22T17:52:50;9.20;99.90
55203;DHT22;41077;52.956;6.796;2023-02-22T17:55:20;9.20;99.90
55203;DHT22;41077;52.956;6.796;2023-02-22T17:57:46;9.20;99.90
55203;DHT22;41077;52.956;6.796;2023-02-22T18:00:15;9.20;99.90
55203;DHT22;41077;52.956;6.796;2023-02-22T18:02:49;9.20;99.90
55203;DHT22;41077;52.956;6.796;2023-02-22T18:05:16;9.20;99.90
55203;DHT22;41077;52.956;6.796;2023-02-22T18:07:43;9.20;99.90
55203;DHT22;41077;52.956;6.796;2023-02-22T18:10:10;9.20;99.90
55203;DHT22;41077;52.956;6.796;2023-02-22T18:12:40;9.20;99.90
55203;DHT22;41077;52.956;6.796;2023-02-22T18:15:08;9.20;99.90
55203;DHT22;41077;52.956;6.796;2023-02-22T18:17:41;9.20;99.90
55203;DHT22;41077;52.956;6.796;2023-02-22T18:20:07;9.10;99.90
55203;DHT22;41077;52.956;6.796;2023-02-22T18:22:40;9.10;99.90
55203;DHT22;41077;52.956;6.796;2023-02-22T18:25:10;9.10;99.90
55203;DHT22;41077;52.956;6.796;2023-02-22T18:27:38;9.10;99.90
55203;DHT22;41077;52.956;6.796;2023-02-22T18:30:04;9.10;99.90
55203;DHT22;41077;52.956;6.796;2023-02-22T18:32:30;9.10;99.90
55203;DHT22;41077;52.956;6.796;2023-02-22T18:34:59;9.10;99.90
55203;DHT22;41077;52.956;6.796;2023-02-22T18:37:25;9.10;99.90
55203;DHT22;41077;52.956;6.796;2023-02-22T18:39:56;9.10;99.90
55203;DHT22;41077;52.956;6.796;2023-02-22T18:42:23;9.10;99.90
55203;DHT22;41077;52.956;6.796;2023-02-22T18:44:50;9.10;99.90
55203;DHT22;41077;52.956;6.796;2023-02-22T18:47:17;9.10;99.90
55203;DHT22;41077;52.956;6.796;2023-02-22T18:49:43;9.10;99.90
55203;DHT22;41077;52.956;6.796;2023-02-22T18:52:08;9.10;99.90
55203;DHT22;41077;52.956;6.796;2023-02-22T18:54:40;9.00;99.90
55203;DHT22;41077;52.956;6.796;2023-02-22T18:57:10;9.00;99.90
55203;DHT22;41077;52.956;6.796;2023-02-22T18:59:38;9.00;99.90
55203;DHT22;41077;52.956;6.796;2023-02-22T19:02:04;9.00;99.90
55203;DHT22;41077;52.956;6.796;2023-02-22T19:04:29;9.00;99.90
55203;DHT22;41077;52.956;6.796;2023-02-22T19:06:55;9.00;99.90
55203;DHT22;41077;52.956;6.796;2023-02-22T19:09:23;9.00;99.90
55203;DHT22;41077;52.956;6.796;2023-02-22T19:11:49;9.00;99.90
55203;DHT22;41077;52.956;6.796;2023-02-22T19:14:16;9.00;99.90
55203;DHT22;41077;52.956;6.796;2023-02-22T19:16:42;9.00;99.90
55203;DHT22;41077;52.956;6.796;2023-02-22T19:19:12;8.90;99.90